Terminal Aerodrome Forecast
Issued by NWS

Home | Current Version | Previous Version | Text Only | Print | Product List | Glossary On
Versions: 1 2 3 4 5 6 7 8 9 10 11 12 13 14
000
FTUS44 KJAN 250541
TAFHKS
TAF
KHKS 250541Z 2506/2606 20012G20KT P6SM SHRA BKN025 BKN090
     FM250730 27012G24KT 3SM SHRA BR VCTS BKN015 OVC025CB
     FM251000 33009KT 3SM SHRA BR BKN025 OVC050
     FM251300 02007KT P6SM -RA BKN030 OVC050
     FM251500 04006KT P6SM VCSH OVC050
     FM252100 05003KT P6SM SHRA BKN025 OVC050
     FM260100 04005KT 3SM SHRA BR BKN008 OVC090=

USA.gov is the U.S. government's official web portal to all federal, state and local government web resources and services.